createdAt,value
2022-08-10T00:00:51.568Z,18.41
2022-08-10T00:01:54.553Z,18.22
2022-08-10T00:03:00.575Z,18.18
2022-08-10T00:04:02.896Z,18.55
2022-08-10T00:05:05.483Z,19.07
2022-08-10T00:06:07.311Z,19.59
2022-08-10T00:07:09.025Z,20.06
2022-08-10T00:08:10.731Z,20.44
2022-08-10T00:09:12.498Z,20.70
2022-08-10T00:10:16.363Z,20.65
2022-08-10T00:11:18.196Z,20.34
2022-08-10T00:12:20.162Z,19.96
2022-08-10T00:13:23.343Z,19.60
2022-08-10T00:14:25.040Z,19.28
2022-08-10T00:15:53.032Z,19.01
2022-08-10T00:16:49.165Z,18.69
2022-08-10T00:17:50.805Z,18.49
2022-08-10T00:18:52.449Z,18.29
2022-08-10T00:20:04.078Z,18.13
2022-08-10T00:21:10.801Z,18.25
2022-08-10T00:22:12.483Z,18.72
2022-08-10T00:23:18.975Z,19.29
2022-08-10T00:24:20.633Z,19.78
2022-08-10T00:25:22.306Z,20.21
2022-08-10T00:26:24.000Z,20.53
2022-08-10T00:28:00.840Z,20.60
2022-08-10T00:28:48.733Z,20.24
2022-08-10T00:29:50.595Z,19.85
2022-08-10T00:30:52.647Z,19.48
2022-08-10T00:31:57.679Z,19.13
2022-08-10T00:33:01.074Z,18.82
2022-08-10T00:34:02.814Z,18.55
2022-08-10T00:35:05.184Z,18.30
2022-08-10T00:36:07.069Z,18.10
2022-08-10T00:37:08.904Z,18.01
2022-08-10T00:38:10.741Z,18.26
2022-08-10T00:39:15.947Z,18.78
2022-08-10T00:40:18.386Z,19.34
2022-08-10T00:41:37.081Z,19.93
2022-08-10T00:42:38.782Z,20.31
2022-08-10T00:43:40.492Z,20.58
2022-08-10T00:44:47.827Z,20.61
2022-08-10T00:45:59.362Z,20.31
2022-08-10T00:47:02.160Z,19.85
2022-08-10T00:48:04.060Z,19.47
2022-08-10T00:49:06.022Z,19.13
2022-08-10T00:50:09.207Z,18.84
2022-08-10T00:51:11.998Z,18.57
2022-08-10T00:52:16.786Z,18.32
2022-08-10T00:53:18.624Z,18.09
2022-08-10T00:54:24.076Z,18.12
2022-08-10T00:55:27.486Z,18.54
2022-08-10T00:57:14.353Z,19.05
2022-08-10T00:57:55.343Z,19.67
2022-08-10T00:58:57.456Z,20.11
2022-08-10T01:00:00.452Z,20.43
2022-08-10T01:01:02.911Z,20.66
2022-08-10T01:02:08.314Z,20.59
2022-08-10T01:03:13.604Z,20.21
2022-08-10T01:04:40.206Z,19.79
2022-08-10T01:05:52.160Z,19.28
2022-08-10T01:07:22.104Z,18.87
2022-08-10T01:08:40.330Z,18.45
2022-08-10T01:09:55.543Z,18.16
2022-08-10T01:12:28.709Z,18.34
2022-08-10T01:13:20.677Z,19.18
2022-08-10T01:14:35.247Z,19.82
2022-08-10T01:15:51.320Z,20.24
2022-08-10T01:17:03.020Z,20.56
2022-08-10T01:18:08.084Z,20.76
2022-08-10T01:19:42.734Z,20.67
2022-08-10T01:21:14.652Z,20.12
2022-08-10T01:22:29.124Z,19.52
2022-08-10T01:23:45.920Z,19.10
2022-08-10T01:24:56.459Z,18.73
2022-08-10T01:26:12.479Z,18.42
2022-08-10T01:27:34.346Z,18.54
2022-08-10T01:29:03.594Z,19.04
2022-08-10T01:30:09.347Z,19.70
2022-08-10T01:31:20.077Z,20.14
2022-08-10T01:32:31.419Z,20.52
2022-08-10T01:34:02.389Z,20.81
2022-08-10T01:35:33.776Z,20.75
2022-08-10T01:36:45.020Z,20.21
2022-08-10T01:38:03.364Z,19.75
2022-08-10T01:39:07.949Z,19.30
2022-08-10T01:40:13.785Z,18.99
2022-08-10T01:41:46.137Z,18.70
2022-08-10T01:42:51.255Z,18.52
2022-08-10T01:44:07.044Z,18.83
2022-08-10T01:45:13.054Z,19.40
2022-08-10T01:46:17.110Z,19.89
2022-08-10T01:47:42.392Z,20.29
2022-08-10T01:48:51.998Z,20.71
2022-08-10T01:50:03.232Z,20.92
2022-08-10T01:51:08.205Z,20.78
2022-08-10T01:52:10.519Z,20.40
2022-08-10T01:53:41.258Z,19.92
2022-08-10T01:54:45.671Z,19.40
2022-08-10T01:55:49.914Z,19.03
2022-08-10T01:56:57.030Z,18.72
2022-08-10T01:58:03.529Z,18.42
2022-08-10T01:59:15.626Z,18.42
2022-08-10T02:00:19.023Z,18.83
2022-08-10T02:01:25.723Z,19.28
2022-08-10T02:02:31.685Z,19.73
2022-08-10T02:04:04.684Z,20.11
2022-08-10T02:05:05.184Z,20.49
2022-08-10T02:06:12.624Z,20.74
2022-08-10T02:07:19.919Z,20.92
2022-08-10T02:08:24.874Z,20.81
2022-08-10T02:09:31.714Z,20.43
2022-08-10T02:10:37.557Z,19.96
2022-08-10T02:11:55.704Z,19.51
2022-08-10T02:13:04.076Z,19.03
2022-08-10T02:14:08.962Z,18.72
2022-08-10T02:15:16.571Z,18.48
2022-08-10T02:16:23.525Z,18.65
2022-08-10T02:17:59.563Z,19.08
2022-08-10T02:18:55.146Z,19.68
2022-08-10T02:20:03.407Z,20.06
2022-08-10T02:21:08.194Z,20.38
2022-08-10T02:22:45.927Z,20.62
2022-08-10T02:23:39.687Z,20.88
2022-08-10T02:24:45.210Z,20.92
2022-08-10T02:25:50.234Z,20.62
2022-08-10T02:26:59.734Z,20.19
2022-08-10T02:28:05.938Z,19.70
2022-08-10T02:29:11.603Z,19.27
2022-08-10T02:30:14.117Z,18.91
2022-08-10T02:31:23.340Z,18.62
2022-08-10T02:32:38.305Z,18.64
2022-08-10T02:33:57.439Z,19.06
2022-08-10T02:35:04.185Z,19.61
2022-08-10T02:36:11.926Z,20.01
2022-08-10T02:37:14.936Z,20.35
2022-08-10T02:38:23.352Z,20.58
2022-08-10T02:39:45.031Z,20.85
2022-08-10T02:42:18.242Z,20.94
2022-08-10T02:45:23.509Z,20.59
2022-08-10T02:45:23.852Z,19.92
2022-08-10T02:45:30.876Z,19.31
2022-08-10T02:46:41.866Z,18.85
2022-08-10T02:48:06.624Z,18.50
2022-08-10T02:49:18.586Z,18.46
2022-08-10T02:50:35.901Z,18.89
2022-08-10T02:52:06.407Z,19.41
2022-08-10T02:53:55.013Z,19.94
2022-08-10T02:55:17.722Z,20.35
2022-08-10T02:56:28.530Z,20.65
2022-08-10T02:57:38.761Z,20.83
2022-08-10T02:59:40.133Z,20.94
2022-08-10T03:00:50.792Z,20.48
2022-08-10T03:01:59.203Z,19.97
2022-08-10T03:03:05.722Z,19.51
2022-08-10T03:04:17.575Z,19.10
2022-08-10T03:05:20.313Z,18.73
2022-08-10T03:06:29.646Z,18.59
2022-08-10T03:07:43.479Z,18.87
2022-08-10T03:08:49.194Z,19.39
2022-08-10T03:09:54.787Z,19.82
2022-08-10T03:11:01.238Z,20.20
2022-08-10T03:12:37.427Z,20.49
2022-08-10T03:13:32.306Z,20.80
2022-08-10T03:14:37.403Z,21.00
2022-08-10T03:15:41.122Z,21.01
2022-08-10T03:16:46.179Z,20.71
2022-08-10T03:17:57.977Z,20.27
2022-08-10T03:19:04.460Z,19.78
2022-08-10T03:20:38.245Z,19.38
2022-08-10T03:21:31.739Z,18.94
2022-08-10T03:22:36.378Z,18.67
2022-08-10T03:23:41.289Z,18.71
2022-08-10T03:24:44.869Z,19.08
2022-08-10T03:25:52.589Z,19.54
2022-08-10T03:26:57.846Z,20.01
2022-08-10T03:28:01.107Z,20.36
2022-08-10T03:29:06.106Z,20.64
2022-08-10T03:30:27.405Z,20.88
2022-08-10T03:31:32.930Z,21.08
2022-08-10T03:32:36.641Z,20.94
2022-08-10T03:33:43.661Z,20.57
2022-08-10T03:34:46.103Z,20.11
2022-08-10T03:36:40.545Z,19.71
2022-08-10T03:37:10.499Z,19.23
2022-08-10T03:38:12.324Z,18.92
2022-08-10T03:39:14.470Z,18.72
2022-08-10T03:40:16.350Z,18.85
2022-08-10T03:41:24.933Z,19.23
2022-08-10T03:42:30.370Z,19.69
2022-08-10T03:43:34.082Z,20.09
2022-08-10T03:44:37.838Z,20.40
2022-08-10T03:45:55.136Z,20.67
2022-08-10T03:47:01.081Z,20.90
2022-08-10T03:48:05.600Z,21.06
2022-08-10T03:49:09.228Z,21.07
2022-08-10T03:50:28.092Z,20.77
2022-08-10T03:51:36.437Z,20.18
2022-08-10T03:52:39.351Z,19.73
2022-08-10T03:54:05.589Z,19.33
2022-08-10T03:55:04.122Z,18.88
2022-08-10T03:56:28.528Z,18.66
2022-08-10T03:57:30.139Z,18.91
2022-08-10T03:58:32.301Z,19.33
2022-08-10T03:59:36.209Z,19.71
2022-08-10T04:00:38.949Z,20.06
2022-08-10T04:02:46.664Z,20.34
2022-08-10T04:03:08.185Z,20.63
2022-08-10T04:04:11.806Z,20.79
2022-08-10T04:05:16.846Z,20.95
2022-08-10T04:06:18.774Z,21.07
2022-08-10T04:07:20.968Z,21.12
2022-08-10T04:08:22.934Z,20.88
2022-08-10T04:09:43.017Z,20.47
2022-08-10T04:10:52.162Z,19.84
2022-08-10T04:11:53.921Z,19.45
2022-08-10T04:12:56.302Z,19.11
2022-08-10T04:14:00.750Z,18.78
2022-08-10T04:15:02.863Z,18.65
2022-08-10T04:16:07.536Z,18.89
2022-08-10T04:17:13.834Z,19.33
2022-08-10T04:18:16.149Z,19.79
2022-08-10T04:19:19.639Z,20.16
2022-08-10T04:20:35.586Z,20.47
2022-08-10T04:21:43.047Z,20.77
2022-08-10T04:22:53.488Z,21.00
2022-08-10T04:24:00.904Z,21.18
2022-08-10T04:25:05.669Z,21.29
2022-08-10T04:26:07.791Z,21.12
2022-08-10T04:27:10.070Z,20.73
2022-08-10T04:28:12.868Z,20.30
2022-08-10T04:29:15.075Z,19.88
2022-08-10T04:30:17.612Z,19.51
2022-08-10T04:31:21.093Z,19.21
2022-08-10T04:32:25.079Z,18.97
2022-08-10T04:33:31.813Z,19.09
2022-08-10T04:34:35.434Z,19.50
2022-08-10T04:35:39.052Z,19.96
2022-08-10T04:36:42.339Z,20.37
2022-08-10T04:37:47.784Z,20.70
2022-08-10T04:38:51.579Z,21.00
2022-08-10T04:39:53.914Z,21.21
2022-08-10T04:40:56.950Z,21.39
2022-08-10T04:41:59.171Z,21.51
2022-08-10T04:43:10.879Z,21.34
2022-08-10T04:44:14.352Z,20.89
2022-08-10T04:45:16.414Z,20.47
2022-08-10T04:46:55.530Z,20.07
2022-08-10T04:48:00.366Z,19.60
2022-08-10T04:49:02.217Z,19.23
2022-08-10T04:50:07.498Z,19.13
2022-08-10T04:51:17.940Z,19.39
2022-08-10T04:52:21.250Z,19.89
2022-08-10T04:53:27.202Z,20.34
2022-08-10T04:54:29.823Z,20.71
2022-08-10T04:55:31.650Z,21.02
2022-08-10T04:56:36.318Z,21.25
2022-08-10T04:57:38.071Z,21.45
2022-08-10T04:58:39.844Z,21.60
2022-08-10T04:59:41.481Z,21.69
2022-08-10T05:00:43.276Z,21.52
2022-08-10T05:02:27.140Z,21.14
2022-08-10T05:03:06.829Z,20.57
2022-08-10T05:04:34.384Z,20.18
2022-08-10T05:05:30.361Z,19.73
2022-08-10T05:06:32.290Z,19.44
2022-08-10T05:07:53.931Z,19.22
2022-08-10T05:08:55.983Z,19.40
2022-08-10T05:10:04.039Z,19.84
2022-08-10T05:11:08.775Z,20.35
2022-08-10T05:12:10.590Z,20.76
2022-08-10T05:13:12.281Z,21.09
2022-08-10T05:14:14.035Z,21.36
2022-08-10T05:15:18.214Z,21.58
2022-08-10T05:16:31.587Z,21.75
2022-08-10T05:17:35.969Z,21.92
2022-08-10T05:18:37.710Z,21.77
2022-08-10T05:20:04.086Z,21.42
2022-08-10T05:21:01.125Z,20.89
2022-08-10T05:22:05.183Z,20.54
2022-08-10T05:23:07.439Z,20.20
2022-08-10T05:24:09.133Z,19.92
2022-08-10T05:25:14.122Z,19.73
2022-08-10T05:26:16.451Z,19.89
2022-08-10T05:27:18.086Z,20.31
2022-08-10T05:28:19.735Z,20.77
2022-08-10T05:29:25.444Z,21.24
2022-08-10T05:30:27.512Z,21.61
2022-08-10T05:31:29.716Z,21.91
2022-08-10T05:32:55.306Z,22.16
2022-08-10T05:33:54.743Z,22.38
2022-08-10T05:34:56.510Z,22.26
2022-08-10T05:35:59.623Z,21.93
2022-08-10T05:37:02.462Z,21.52
2022-08-10T05:38:10.301Z,21.11
2022-08-10T05:39:16.134Z,20.71
2022-08-10T05:40:18.432Z,20.39
2022-08-10T05:41:20.605Z,20.12
2022-08-10T05:42:23.807Z,19.86
2022-08-10T05:43:25.926Z,19.66
2022-08-10T05:44:28.644Z,19.77
2022-08-10T05:45:30.482Z,20.19
2022-08-10T05:46:32.196Z,20.67
2022-08-10T05:48:54.829Z,21.12
2022-08-10T05:49:00.561Z,21.61
2022-08-10T05:50:03.678Z,21.92
2022-08-10T05:51:07.407Z,22.15
2022-08-10T05:52:09.420Z,22.33
2022-08-10T05:53:59.189Z,22.48
2022-08-10T05:54:34.364Z,22.33
2022-08-10T05:55:36.265Z,21.99
2022-08-10T05:56:55.133Z,21.60
2022-08-10T05:58:01.029Z,21.09
2022-08-10T05:59:02.869Z,20.77
2022-08-10T06:00:36.220Z,20.50
2022-08-10T06:01:39.133Z,20.18
2022-08-10T06:02:44.994Z,20.18
2022-08-10T06:03:54.093Z,20.57
2022-08-10T06:04:59.238Z,21.11
2022-08-10T06:06:04.195Z,21.60
2022-08-10T06:07:07.925Z,22.00
2022-08-10T06:08:20.535Z,22.37
2022-08-10T06:09:25.845Z,22.67
2022-08-10T06:10:32.096Z,22.75
2022-08-10T06:12:28.064Z,22.54
2022-08-10T06:13:27.035Z,22.09
2022-08-10T06:14:59.514Z,21.57
2022-08-10T06:16:09.018Z,21.14
2022-08-10T06:17:12.115Z,20.88
2022-08-10T06:18:15.462Z,20.67
2022-08-10T06:19:17.876Z,20.48
2022-08-10T06:20:19.712Z,20.31
2022-08-10T06:21:21.858Z,20.27
2022-08-10T06:22:25.588Z,20.55
2022-08-10T06:23:30.470Z,21.06
2022-08-10T06:25:04.571Z,21.61
2022-08-10T06:26:11.421Z,22.26
2022-08-10T06:27:15.614Z,22.67
2022-08-10T06:28:20.823Z,22.94
2022-08-10T06:29:24.738Z,22.91
2022-08-10T06:30:29.479Z,22.59
2022-08-10T06:31:47.655Z,22.21
2022-08-10T06:32:56.696Z,21.79
2022-08-10T06:34:01.406Z,21.49
2022-08-10T06:35:08.277Z,21.23
2022-08-10T06:36:12.489Z,21.00
2022-08-10T06:37:19.221Z,20.80
2022-08-10T06:38:26.616Z,20.73
2022-08-10T06:39:34.148Z,21.02
2022-08-10T06:40:43.422Z,21.56
2022-08-10T06:42:14.934Z,22.08
2022-08-10T06:43:18.569Z,22.60
2022-08-10T06:44:29.279Z,22.94
2022-08-10T06:45:41.275Z,23.14
2022-08-10T06:46:49.597Z,22.98
2022-08-10T06:48:02.344Z,22.63
2022-08-10T06:49:07.275Z,22.24
2022-08-10T06:50:55.985Z,21.94
2022-08-10T06:52:02.703Z,21.49
2022-08-10T06:53:12.537Z,21.27
2022-08-10T06:54:18.136Z,21.08
2022-08-10T06:55:39.838Z,20.94
2022-08-10T06:57:08.347Z,20.78
2022-08-10T06:58:13.128Z,20.69
2022-08-10T06:59:54.038Z,20.93
2022-08-10T07:00:57.072Z,21.78
2022-08-10T07:02:12.157Z,22.28
2022-08-10T07:03:18.935Z,22.74
2022-08-10T07:04:56.220Z,22.96
2022-08-10T07:06:02.114Z,22.71
2022-08-10T07:07:07.834Z,22.39
2022-08-10T07:08:12.532Z,22.06
2022-08-10T07:09:18.140Z,21.80
2022-08-10T07:10:22.689Z,21.57
2022-08-10T07:11:27.310Z,21.40
2022-08-10T07:12:34.392Z,21.24
2022-08-10T07:14:14.384Z,21.12
2022-08-10T07:15:03.485Z,20.99
2022-08-10T07:16:10.911Z,20.91
2022-08-10T07:17:16.737Z,20.84
2022-08-10T07:18:20.960Z,20.76
2022-08-10T07:19:25.508Z,20.71
2022-08-10T07:20:28.378Z,20.75
2022-08-10T07:21:32.562Z,21.10
2022-08-10T07:23:27.115Z,21.67
2022-08-10T07:24:00.981Z,22.46
2022-08-10T07:25:06.773Z,22.96
2022-08-10T07:26:09.933Z,23.35
2022-08-10T07:27:13.364Z,23.57
2022-08-10T07:28:17.828Z,23.50
2022-08-10T07:29:26.402Z,23.24
2022-08-10T07:30:46.054Z,22.84
2022-08-10T07:31:56.944Z,22.58
2022-08-10T07:33:02.239Z,22.32
2022-08-10T07:34:07.179Z,22.13
2022-08-10T07:35:13.531Z,21.97
2022-08-10T07:36:19.062Z,21.83
2022-08-10T07:37:25.037Z,21.71
2022-08-10T07:38:31.670Z,21.62
2022-08-10T07:40:02.669Z,21.55
2022-08-10T07:41:03.495Z,21.47
2022-08-10T07:42:09.997Z,21.41
2022-08-10T07:43:15.224Z,21.35
2022-08-10T07:44:19.393Z,21.27
2022-08-10T07:45:21.341Z,21.21
2022-08-10T07:46:28.238Z,21.16
2022-08-10T07:47:46.243Z,21.13
2022-08-10T07:49:16.803Z,21.11
2022-08-10T07:50:25.063Z,21.11
2022-08-10T07:51:31.128Z,21.11
2022-08-10T07:52:35.451Z,21.12
2022-08-10T07:53:43.754Z,21.14
2022-08-10T07:54:49.891Z,21.15
2022-08-10T07:56:03.554Z,21.17
2022-08-10T07:57:30.955Z,21.28
2022-08-10T07:58:51.881Z,21.91
2022-08-10T07:59:59.978Z,22.75
2022-08-10T08:01:01.829Z,23.37
2022-08-10T08:02:07.660Z,23.72
2022-08-10T08:03:13.330Z,23.75
2022-08-10T08:04:19.632Z,23.54
2022-08-10T08:05:29.932Z,23.28
2022-08-10T08:06:49.573Z,22.95
2022-08-10T08:07:53.899Z,22.75
2022-08-10T08:08:58.559Z,22.58
2022-08-10T08:10:03.001Z,22.46
2022-08-10T08:11:06.250Z,22.36
2022-08-10T08:12:11.066Z,22.28
2022-08-10T08:13:14.881Z,22.23
2022-08-10T08:14:19.085Z,22.17
2022-08-10T08:16:20.403Z,22.13
2022-08-10T08:16:51.646Z,22.07
2022-08-10T08:18:00.818Z,22.04
2022-08-10T08:19:26.431Z,22.02
2022-08-10T08:20:26.430Z,22.02
2022-08-10T08:24:07.380Z,22.03
2022-08-10T08:24:10.686Z,22.02
2022-08-10T08:24:30.487Z,22.06
2022-08-10T08:25:36.688Z,22.09
2022-08-10T08:26:39.231Z,22.12
2022-08-10T08:27:47.602Z,22.16
2022-08-10T08:28:51.108Z,22.21
2022-08-10T08:29:54.326Z,22.25
2022-08-10T08:30:58.894Z,22.30
2022-08-10T08:32:03.729Z,22.34
2022-08-10T08:33:09.757Z,22.38
2022-08-10T08:34:22.988Z,22.41
2022-08-10T08:35:26.766Z,22.44
2022-08-10T08:36:30.824Z,22.46
2022-08-10T08:38:31.781Z,22.50
2022-08-10T08:38:56.795Z,22.53
2022-08-10T08:39:58.689Z,22.55
2022-08-10T08:41:22.182Z,22.55
2022-08-10T08:42:42.575Z,22.56
2022-08-10T08:43:59.454Z,22.57
2022-08-10T08:45:23.329Z,22.61
2022-08-10T08:46:59.272Z,22.61
2022-08-10T08:48:11.408Z,22.60
2022-08-10T08:50:04.752Z,22.61
2022-08-10T08:51:01.738Z,22.60
2022-08-10T08:52:29.108Z,22.61
2022-08-10T08:54:07.931Z,22.59
2022-08-10T08:56:05.028Z,22.51
2022-08-10T08:57:22.929Z,22.44
2022-08-10T08:58:54.370Z,22.41
2022-08-10T09:00:14.425Z,22.42
2022-08-10T09:01:53.130Z,22.45
2022-08-10T09:03:28.430Z,22.54
2022-08-10T09:05:09.503Z,22.58
2022-08-10T09:06:45.776Z,22.60
2022-08-10T09:08:02.178Z,22.64
2022-08-10T09:09:35.574Z,22.69
2022-08-10T09:10:46.090Z,22.72
2022-08-10T09:12:08.838Z,22.69
2022-08-10T09:13:42.642Z,22.63
2022-08-10T09:15:05.884Z,22.60
2022-08-10T09:16:35.148Z,22.59
2022-08-10T09:17:59.850Z,22.59
2022-08-10T09:19:19.655Z,22.57
2022-08-10T09:20:45.807Z,22.54
2022-08-10T09:22:18.231Z,22.54
2022-08-10T09:24:20.205Z,22.58
2022-08-10T09:25:26.169Z,22.69
2022-08-10T09:26:42.948Z,22.75
2022-08-10T09:27:49.614Z,22.80
2022-08-10T09:29:12.302Z,22.84
2022-08-10T09:30:32.178Z,22.92
2022-08-10T09:32:55.002Z,22.98
2022-08-10T09:36:20.836Z,23.06
2022-08-10T09:36:24.065Z,23.11
2022-08-10T09:36:31.984Z,23.18
2022-08-10T09:38:01.937Z,23.22
2022-08-10T09:40:06.860Z,23.29
2022-08-10T09:41:16.350Z,23.35
2022-08-10T09:42:42.504Z,23.40
2022-08-10T09:44:01.799Z,23.41
2022-08-10T09:45:15.231Z,23.37
2022-08-10T09:46:46.908Z,23.35
2022-08-10T09:48:13.220Z,23.35
2022-08-10T09:49:54.829Z,23.36
2022-08-10T09:51:46.338Z,23.35
2022-08-10T09:53:10.956Z,23.31
2022-08-10T09:54:46.649Z,23.30
2022-08-10T09:56:29.735Z,23.29
2022-08-10T09:57:48.455Z,23.33
2022-08-10T09:59:27.262Z,23.39
2022-08-10T10:00:23.381Z,23.47
2022-08-10T10:02:03.457Z,23.53
2022-08-10T10:03:17.048Z,23.62
2022-08-10T10:04:33.244Z,23.71
2022-08-10T10:05:59.428Z,23.81
2022-08-10T10:07:10.599Z,23.92
2022-08-10T10:08:43.947Z,24.01
2022-08-10T10:10:07.660Z,24.15
2022-08-10T10:11:21.265Z,24.27
2022-08-10T10:13:09.246Z,24.39
2022-08-10T10:14:19.510Z,24.52
2022-08-10T10:15:33.788Z,24.55
2022-08-10T10:17:03.501Z,24.54
2022-08-10T10:18:19.901Z,24.45
2022-08-10T10:20:11.075Z,24.33
2022-08-10T10:21:54.748Z,24.14
2022-08-10T10:23:40.651Z,23.98
2022-08-10T10:24:52.734Z,23.80
2022-08-10T10:26:08.435Z,23.69
2022-08-10T10:27:47.987Z,23.61
2022-08-10T10:29:55.796Z,23.61
2022-08-10T10:31:16.822Z,23.68
2022-08-10T10:32:42.184Z,23.75
2022-08-10T10:34:02.189Z,23.83
2022-08-10T10:35:12.771Z,23.91
2022-08-10T10:36:17.745Z,23.95
2022-08-10T10:37:22.175Z,23.95
2022-08-10T10:38:47.203Z,23.90
2022-08-10T10:39:54.628Z,23.83
2022-08-10T10:41:15.057Z,23.75
2022-08-10T10:42:46.879Z,23.63
2022-08-10T10:44:27.483Z,23.48
2022-08-10T10:45:58.486Z,23.31
2022-08-10T10:47:26.152Z,23.22
2022-08-10T10:48:52.598Z,23.19
2022-08-10T10:50:22.536Z,23.22
2022-08-10T10:51:34.164Z,23.27
2022-08-10T10:53:03.105Z,23.31
2022-08-10T10:54:32.525Z,23.42
2022-08-10T10:56:14.312Z,23.56
2022-08-10T10:57:59.088Z,23.71
2022-08-10T10:59:53.533Z,23.90
2022-08-10T11:00:46.321Z,24.09
2022-08-10T11:02:01.075Z,24.23
2022-08-10T11:03:27.560Z,24.37
2022-08-10T11:05:03.232Z,24.56
2022-08-10T11:06:40.611Z,24.71
2022-08-10T11:07:54.929Z,24.88
2022-08-10T11:09:03.474Z,24.97
2022-08-10T11:10:32.824Z,25.08
2022-08-10T11:12:00.760Z,25.20
2022-08-10T11:14:24.501Z,25.32
2022-08-10T11:15:10.109Z,25.44
2022-08-10T11:16:28.815Z,25.58
2022-08-10T11:17:39.047Z,25.67
2022-08-10T11:19:13.581Z,25.73
2022-08-10T11:20:25.918Z,25.81
2022-08-10T11:21:54.731Z,25.88
2022-08-10T11:23:22.263Z,26.00
2022-08-10T11:24:56.400Z,26.12
2022-08-10T11:26:10.594Z,26.24
2022-08-10T11:27:37.797Z,26.34
2022-08-10T11:28:54.360Z,26.41
2022-08-10T11:30:03.645Z,26.41
2022-08-10T11:31:33.738Z,26.38
2022-08-10T11:32:50.902Z,26.34
2022-08-10T11:34:47.546Z,26.32
2022-08-10T11:36:01.437Z,26.34
2022-08-10T11:37:15.302Z,26.37
2022-08-10T11:39:13.490Z,26.41
2022-08-10T11:40:24.907Z,26.50
2022-08-10T11:42:12.553Z,26.54
2022-08-10T11:43:26.234Z,26.62
2022-08-10T11:45:02.681Z,26.68
2022-08-10T11:46:33.726Z,26.78
2022-08-10T11:47:52.665Z,26.90
2022-08-10T11:49:10.788Z,27.00
2022-08-10T11:50:32.331Z,27.09
2022-08-10T11:51:49.075Z,27.18
2022-08-10T11:53:09.908Z,27.28
2022-08-10T11:54:25.961Z,27.40
2022-08-10T11:55:32.927Z,27.53
2022-08-10T11:56:59.934Z,27.67
2022-08-10T11:58:31.120Z,27.86
2022-08-10T11:59:58.293Z,27.97
2022-08-10T12:01:07.038Z,28.03
2022-08-10T12:02:14.659Z,28.06
2022-08-10T12:03:19.449Z,28.03
2022-08-10T12:04:23.800Z,27.95
2022-08-10T12:05:51.638Z,27.88
2022-08-10T12:06:59.368Z,27.81
2022-08-10T12:08:54.807Z,27.77
2022-08-10T12:10:10.939Z,27.72
2022-08-10T12:10:52.064Z,27.72
2022-08-10T12:11:55.036Z,27.74
2022-08-10T12:13:15.377Z,27.79
2022-08-10T12:14:26.097Z,27.88
2022-08-10T12:15:40.712Z,27.92
2022-08-10T12:16:49.025Z,27.98
2022-08-10T12:17:57.564Z,28.03
2022-08-10T12:19:05.649Z,28.09
2022-08-10T12:20:09.628Z,28.18
2022-08-10T12:21:37.968Z,28.27
2022-08-10T12:22:57.426Z,28.33
2022-08-10T12:24:12.808Z,28.35
2022-08-10T12:25:57.630Z,28.41
2022-08-10T12:27:13.311Z,28.53
2022-08-10T12:28:49.284Z,28.68
2022-08-10T12:29:59.091Z,28.80
2022-08-10T12:31:03.665Z,28.88
2022-08-10T12:32:25.492Z,28.89
2022-08-10T12:34:02.566Z,28.93
2022-08-10T12:35:17.975Z,29.02
2022-08-10T12:36:32.345Z,29.08
2022-08-10T12:38:07.076Z,29.11
2022-08-10T12:39:28.228Z,29.09
2022-08-10T12:40:37.301Z,28.99
2022-08-10T12:41:57.076Z,28.86
2022-08-10T12:44:07.806Z,28.65
2022-08-10T12:44:41.513Z,28.43
2022-08-10T12:46:06.565Z,28.23
2022-08-10T12:47:22.610Z,28.02
2022-08-10T12:48:36.692Z,27.83
2022-08-10T12:50:23.779Z,27.64
2022-08-10T12:51:32.460Z,27.38
2022-08-10T12:52:50.668Z,27.23
2022-08-10T12:54:11.331Z,27.02
2022-08-10T12:55:14.657Z,26.80
2022-08-10T12:56:41.379Z,26.64
2022-08-10T12:57:43.909Z,26.44
2022-08-10T12:59:00.020Z,26.31
2022-08-10T13:00:06.558Z,26.16
2022-08-10T13:01:23.391Z,26.06
2022-08-10T13:02:29.942Z,25.98
2022-08-10T13:04:21.297Z,25.93
2022-08-10T13:05:02.437Z,25.94
2022-08-10T13:06:07.221Z,26.05
2022-08-10T13:07:10.677Z,26.17
2022-08-10T13:08:52.947Z,26.30
2022-08-10T13:10:05.461Z,26.47
2022-08-10T13:12:18.256Z,26.61
2022-08-10T13:12:40.566Z,26.78
2022-08-10T13:13:49.372Z,26.87
2022-08-10T13:14:59.771Z,26.90
2022-08-10T13:16:03.232Z,26.90
2022-08-10T13:17:08.046Z,26.85
2022-08-10T13:18:18.428Z,26.77
2022-08-10T13:19:22.644Z,26.69
2022-08-10T13:20:29.889Z,26.69
2022-08-10T13:21:37.773Z,26.76
2022-08-10T13:22:42.515Z,26.88
2022-08-10T13:24:04.126Z,26.99
2022-08-10T13:25:10.105Z,27.19
2022-08-10T13:26:17.658Z,27.34
2022-08-10T13:27:59.796Z,27.48
2022-08-10T13:28:55.042Z,27.70
2022-08-10T13:30:05.270Z,27.94
2022-08-10T13:31:16.998Z,28.15
2022-08-10T13:32:30.520Z,28.36
2022-08-10T13:34:40.944Z,28.55
2022-08-10T13:35:00.946Z,28.73
2022-08-10T13:36:04.105Z,28.84
2022-08-10T13:37:09.360Z,28.96
2022-08-10T13:38:20.241Z,29.06
2022-08-10T13:39:26.018Z,29.13
2022-08-10T13:40:31.222Z,29.23
2022-08-10T13:41:39.724Z,29.31
2022-08-10T13:42:42.293Z,29.37
2022-08-10T13:43:52.509Z,29.40
2022-08-10T13:44:58.629Z,29.42
2022-08-10T13:46:02.905Z,29.44
2022-08-10T13:47:06.951Z,29.45
2022-08-10T13:48:18.539Z,29.45
2022-08-10T13:49:21.896Z,29.47
2022-08-10T13:50:34.969Z,29.53
2022-08-10T13:51:53.823Z,29.61
2022-08-10T13:53:01.629Z,29.68
2022-08-10T13:54:07.511Z,29.76
2022-08-10T13:55:15.969Z,29.85
2022-08-10T13:56:21.409Z,29.97
2022-08-10T13:57:33.671Z,30.08
2022-08-10T13:58:41.509Z,30.16
2022-08-10T14:00:36.650Z,30.20
2022-08-10T14:01:17.296Z,30.22
2022-08-10T14:02:27.135Z,30.23
2022-08-10T14:03:37.723Z,30.24
2022-08-10T14:04:44.932Z,30.23
2022-08-10T14:05:52.533Z,30.21
2022-08-10T14:06:59.342Z,30.21
2022-08-10T14:08:04.314Z,30.21
2022-08-10T14:09:11.550Z,30.22
2022-08-10T14:10:16.656Z,30.22
2022-08-10T14:11:21.293Z,30.19
2022-08-10T14:12:33.485Z,30.14
2022-08-10T14:13:40.800Z,30.12
2022-08-10T14:14:45.225Z,30.12
2022-08-10T14:15:57.349Z,30.11
2022-08-10T14:17:01.811Z,30.12
2022-08-10T14:18:07.013Z,30.15
2022-08-10T14:19:16.569Z,30.17
2022-08-10T14:20:21.874Z,30.20
2022-08-10T14:21:24.528Z,30.20
2022-08-10T14:22:33.804Z,30.21
2022-08-10T14:23:42.528Z,30.29
2022-08-10T14:25:06.541Z,30.40
2022-08-10T14:26:11.073Z,30.48
2022-08-10T14:27:22.719Z,30.56
2022-08-10T14:28:34.257Z,30.63
2022-08-10T14:29:49.298Z,30.64
2022-08-10T14:31:11.789Z,30.60
2022-08-10T14:32:18.593Z,30.50
2022-08-10T14:33:24.467Z,30.36
2022-08-10T14:36:16.406Z,30.21
2022-08-10T14:36:18.995Z,29.91
2022-08-10T14:37:38.052Z,29.57
2022-08-10T14:38:45.125Z,29.30
2022-08-10T14:39:58.639Z,29.09
2022-08-10T14:41:04.792Z,28.85
2022-08-10T14:42:26.855Z,28.65
2022-08-10T14:43:41.328Z,28.42
2022-08-10T14:44:55.454Z,28.19
2022-08-10T14:46:04.078Z,28.02
2022-08-10T14:47:52.275Z,27.87
2022-08-10T14:48:39.820Z,27.74
2022-08-10T14:49:58.218Z,27.67
2022-08-10T14:51:03.020Z,27.67
2022-08-10T14:52:06.424Z,27.67
2022-08-10T14:53:15.368Z,27.66
2022-08-10T14:54:23.464Z,27.65
2022-08-10T14:55:29.116Z,27.64
2022-08-10T14:56:33.680Z,27.64
2022-08-10T14:58:19.292Z,27.65
2022-08-10T14:59:07.622Z,27.70
2022-08-10T15:00:29.444Z,27.77
2022-08-10T15:02:00.623Z,27.83
2022-08-10T15:03:11.150Z,27.93
2022-08-10T15:04:32.902Z,28.08
2022-08-10T15:05:39.583Z,28.20
2022-08-10T15:06:59.787Z,28.33
2022-08-10T15:08:03.509Z,28.48
2022-08-10T15:09:19.765Z,28.61
2022-08-10T15:10:24.264Z,28.76
2022-08-10T15:12:15.514Z,28.87
2022-08-10T15:12:58.720Z,29.03
2022-08-10T15:14:38.739Z,29.15
2022-08-10T15:15:28.997Z,29.34
2022-08-10T15:16:34.264Z,29.56
2022-08-10T15:17:39.630Z,29.79
2022-08-10T15:18:58.171Z,29.95
2022-08-10T15:20:13.481Z,30.07
2022-08-10T15:21:17.817Z,30.12
2022-08-10T15:22:37.118Z,30.13
2022-08-10T15:24:05.123Z,30.13
2022-08-10T15:25:18.022Z,30.16
2022-08-10T15:26:27.519Z,30.23
2022-08-10T15:27:53.390Z,30.33
2022-08-10T15:29:23.634Z,30.41
2022-08-10T15:30:31.373Z,30.49
2022-08-10T15:31:56.247Z,30.56
2022-08-10T15:34:02.606Z,30.67
2022-08-10T15:35:06.146Z,30.82
2022-08-10T15:36:32.972Z,30.95
2022-08-10T15:37:39.892Z,31.07
2022-08-10T15:38:46.343Z,31.17
2022-08-10T15:40:24.959Z,31.28
2022-08-10T15:41:21.167Z,31.37
2022-08-10T15:42:58.449Z,31.36